Time;durP1;ratioP1;P1;durP2;ratioP2;P2;SDS_P1;SDS_P2;PMS_P1;PMS_P2;Temp;Humidity;BMP_temperature;BMP_pressure;BME280_temperature;BME280_humidity;BME280_pressure;Samples;Min_cycle;Max_cycle;Signal;HPM_P1;HPM_P2
2022/04/23 00:02:35;;;;;;;;;;;;;;;21.47;38.10;94389.75;10435913;28;1805;-53
2022/04/23 00:07:36;;;;;;;;;;;;;;;21.49;37.64;94374.41;10437147;28;1927;-54
2022/04/23 00:12:37;;;;;;;;;;;;;;;21.49;37.98;94380.44;10435954;28;1836;-56
2022/04/23 00:17:37;;;;;;;;;;;;;;;21.48;37.61;94372.84;10438645;28;1906;-53
2022/04/23 00:22:38;;;;;;;;;;;;;;;21.47;37.90;94377.34;10434439;28;1870;-52
2022/04/23 00:27:38;;;;;;;;;;;;;;;21.46;37.57;94375.00;10424184;28;2019;-52
2022/04/23 00:32:39;;;;;;;;;;;;;;;21.49;37.70;94369.13;10434578;28;1858;-51
2022/04/23 00:37:39;;;;;;;;;;;;;;;21.44;37.70;94377.19;10431171;28;2081;-52
2022/04/23 00:42:51;;;;;;;;;;;;;;;21.44;37.33;94380.59;10438618;22;1888;-76
2022/04/23 00:47:52;;;;;;;;;;;;;;;21.43;37.46;94386.19;10429101;28;1850;-79
2022/04/23 00:52:59;;;;;;;;;;;;;;;21.43;37.52;94380.91;10398377;28;1857;-78
2022/04/23 00:58:00;;;;;;;;;;;;;;;21.41;37.57;94375.19;10437564;28;1907;-78
2022/04/23 01:03:00;;;;;;;;;;;;;;;21.43;37.35;94376.41;10419813;28;1881;-78
2022/04/23 01:08:02;;;;;;;;;;;;;;;21.39;37.27;94374.72;10400051;28;1874;-78
2022/04/23 01:13:03;;;;;;;;;;;;;;;21.38;37.51;94378.44;10424416;28;2157;-78
2022/04/23 01:18:03;;;;;;;;;;;;;;;21.39;37.44;94372.09;10427333;28;1961;-78
2022/04/23 01:23:04;;;;;;;;;;;;;;;21.39;37.16;94378.09;10441962;28;1823;-78
2022/04/23 01:28:05;;;;;;;;;;;;;;;21.38;37.15;94383.69;10438654;28;1887;-77
2022/04/23 01:33:05;;;;;;;;;;;;;;;21.35;37.14;94382.44;10403960;28;1910;-78
2022/04/23 01:38:05;;;;;;;;;;;;;;;21.37;37.07;94393.47;10434750;28;1902;-78
2022/04/23 01:43:08;;;;;;;;;;;;;;;21.36;36.89;94391.94;10425514;28;1875;-77
2022/04/23 01:48:08;;;;;;;;;;;;;;;21.33;36.66;94391.78;10425004;28;1892;-77
2022/04/23 01:53:08;;;;;;;;;;;;;;;21.32;36.83;94391.00;10431723;28;1922;-76
2022/04/23 01:58:09;;;;;;;;;;;;;;;21.33;36.75;94397.06;10429555;28;1942;-79
2022/04/23 02:03:10;;;;;;;;;;;;;;;21.30;36.71;94387.91;10441950;28;1933;-80
2022/04/23 02:08:14;;;;;;;;;;;;;;;21.32;36.25;94392.84;10425807;28;1914;-77
2022/04/23 02:13:15;;;;;;;;;;;;;;;21.32;36.15;94400.75;10439860;28;2236;-77
2022/04/23 02:18:16;;;;;;;;;;;;;;;21.33;36.49;94397.06;10422062;28;1915;-78
2022/04/23 02:23:16;;;;;;;;;;;;;;;21.33;36.47;94400.44;10420318;28;1847;-78
2022/04/23 02:28:17;;;;;;;;;;;;;;;21.32;36.29;94387.56;10418994;28;1850;-77
2022/04/23 02:33:17;;;;;;;;;;;;;;;21.31;36.47;94383.41;10420663;28;1987;-79
2022/04/23 02:38:17;;;;;;;;;;;;;;;21.32;35.87;94383.09;10433128;28;1936;-78
2022/04/23 02:43:18;;;;;;;;;;;;;;;21.31;36.10;94373.63;10419825;28;2376;-77
2022/04/23 02:48:18;;;;;;;;;;;;;;;21.31;36.08;94362.31;10419607;28;1814;-78
2022/04/23 02:53:18;;;;;;;;;;;;;;;21.31;36.22;94365.72;10437357;28;1866;-77
2022/04/23 02:58:19;;;;;;;;;;;;;;;21.31;35.85;94373.63;10438944;28;1939;-77
2022/04/23 03:03:19;;;;;;;;;;;;;;;21.32;36.06;94382.31;10414518;28;1909;-77
2022/04/23 03:08:23;;;;;;;;;;;;;;;21.30;35.83;94384.47;10417598;28;1905;-77
2022/04/23 03:13:24;;;;;;;;;;;;;;;21.29;35.73;94383.69;10416598;28;1946;-78
2022/04/23 03:18:26;;;;;;;;;;;;;;;21.29;35.96;94375.03;10442357;28;2549;-79
2022/04/23 03:23:27;;;;;;;;;;;;;;;21.30;35.61;94374.72;10448341;22;1987;-39
2022/04/23 03:28:28;;;;;;;;;;;;;;;21.30;35.59;94384.47;10414560;28;1916;-39
2022/04/23 03:33:29;;;;;;;;;;;;;;;21.29;35.57;94388.97;10427313;28;2051;-40
2022/04/23 03:38:30;;;;;;;;;;;;;;;21.26;35.62;94380.91;10421558;28;2089;-41
2022/04/23 03:43:32;;;;;;;;;;;;;;;21.29;35.44;94390.84;10440740;28;1788;-40
2022/04/23 03:48:33;;;;;;;;;;;;;;;21.30;35.11;94381.84;10444020;28;1812;-39
2022/04/23 03:53:34;;;;;;;;;;;;;;;21.28;35.25;94379.53;10441286;28;1899;-41
2022/04/23 03:58:35;;;;;;;;;;;;;;;21.31;35.12;94372.88;10424946;28;2000;-40
2022/04/23 04:03:36;;;;;;;;;;;;;;;21.30;35.02;94366.03;10435447;28;1817;-41
2022/04/23 04:08:37;;;;;;;;;;;;;;;21.29;34.98;94370.50;10425525;28;1863;-42
2022/04/23 04:13:37;;;;;;;;;;;;;;;21.29;34.93;94381.06;10415277;28;1856;-40
2022/04/23 04:18:38;;;;;;;;;;;;;;;21.29;34.87;94377.66;10438147;28;1914;-39
2022/04/23 04:23:39;;;;;;;;;;;;;;;21.30;34.83;94377.34;10420844;28;1997;-39
2022/04/23 04:28:41;;;;;;;;;;;;;;;21.30;34.81;94369.44;10435729;28;1950;-45
2022/04/23 04:33:41;;;;;;;;;;;;;;;21.27;34.40;94356.88;10422207;28;2048;-45
2022/04/23 04:38:41;;;;;;;;;;;;;;;21.28;34.17;94355.03;10438263;28;1914;-42
2022/04/23 04:43:42;;;;;;;;;;;;;;;21.28;34.24;94358.44;10437935;28;1923;-40
2022/04/23 04:48:44;;;;;;;;;;;;;;;21.29;34.34;94353.94;10443049;28;1843;-42
2022/04/23 04:53:45;;;;;;;;;;;;;;;21.30;34.26;94355.47;10422784;28;1848;-43
2022/04/23 04:58:47;;;;;;;;;;;;;;;21.28;34.20;94355.81;10430673;28;1917;-45
2022/04/23 05:03:48;;;;;;;;;;;;;;;21.30;34.37;94352.84;10426310;28;1850;-41
2022/04/23 05:08:49;;;;;;;;;;;;;;;21.29;34.35;94348.69;10429742;28;1863;-42
2022/04/23 05:13:50;;;;;;;;;;;;;;;21.29;34.01;94354.69;10444020;28;1919;-43
2022/04/23 05:18:51;;;;;;;;;;;;;;;21.30;34.29;94376.56;10445455;28;1965;-40
2022/04/23 05:23:51;;;;;;;;;;;;;;;21.30;33.91;94379.22;10441321;28;1821;-41
2022/04/23 05:28:52;;;;;;;;;;;;;;;21.29;34.19;94383.69;10441858;28;1961;-40
2022/04/23 05:33:54;;;;;;;;;;;;;;;21.31;33.79;94373.63;10446244;28;1856;-39
2022/04/23 05:38:55;;;;;;;;;;;;;;;21.31;33.74;94362.31;10427956;28;2294;-45
2022/04/23 05:43:56;;;;;;;;;;;;;;;21.29;34.10;94364.50;10426073;28;1847;-41
2022/04/23 05:48:56;;;;;;;;;;;;;;;21.30;34.01;94360.75;10424383;28;1868;-39
2022/04/23 05:53:57;;;;;;;;;;;;;;;21.31;34.08;94357.06;10427186;28;2909;-39
2022/04/23 05:58:57;;;;;;;;;;;;;;;21.30;33.89;94358.91;10427858;28;2024;-40
2022/04/23 06:03:58;;;;;;;;;;;;;;;21.30;33.85;94350.22;10430959;28;1957;-48
2022/04/23 06:08:58;;;;;;;;;;;;;;;21.29;33.60;94359.22;10425344;28;1792;-40
2022/04/23 06:13:59;;;;;;;;;;;;;;;21.30;33.60;94372.09;10425615;28;2127;-40
2022/04/23 06:18:59;;;;;;;;;;;;;;;21.30;33.74;94376.56;10439619;28;1902;-40
2022/04/23 06:24:00;;;;;;;;;;;;;;;21.31;33.42;94375.50;10440889;28;1933;-43
2022/04/23 06:29:00;;;;;;;;;;;;;;;21.31;33.32;94370.22;10434661;28;1985;-41
2022/04/23 06:34:01;;;;;;;;;;;;;;;21.32;33.62;94374.41;10439667;28;1843;-40
2022/04/23 06:39:01;;;;;;;;;;;;;;;21.38;33.64;94357.34;10438474;28;1922;-41
2022/04/23 06:44:02;;;;;;;;;;;;;;;21.36;33.43;94364.78;10472780;23;3694;-53
2022/04/23 06:49:05;;;;;;;;;;;;;;;21.34;34.01;94359.84;10477781;28;1774;-55
2022/04/23 06:54:05;;;;;;;;;;;;;;;21.38;34.19;94378.44;10470681;28;1790;-51
2022/04/23 06:59:06;;;;;;;;;;;;;;;21.37;34.22;94377.66;10474270;28;1979;-54
2022/04/23 07:04:10;;;;;;;;;;;;;;;21.38;34.53;94384.47;10471664;28;1837;-56
2022/04/23 07:09:10;;;;;;;;;;;;;;;21.38;34.47;94383.69;10473375;28;1794;-56
2022/04/23 07:14:11;;;;;;;;;;;;;;;21.37;34.48;94375.00;10476436;28;1943;-52
2022/04/23 07:19:11;;;;;;;;;;;;;;;21.37;34.51;94374.25;10471534;28;1914;-55
2022/04/23 07:24:13;;;;;;;;;;;;;;;21.34;34.28;94377.50;10472677;28;1797;-54
2022/04/23 07:29:13;;;;;;;;;;;;;;;21.33;34.35;94370.69;10466592;28;1910;-56
2022/04/23 07:39:49;;;;;;;;;;;;;;;21.32;34.43;94364.63;10404754;28;1948;-55
2022/04/23 07:44:49;;;;;;;;;;;;;;;21.32;34.12;94363.84;10468929;28;2255;-54
2022/04/23 07:49:50;;;;;;;;;;;;;;;21.34;34.20;94364.31;10460776;28;2124;-54
2022/04/23 07:54:50;;;;;;;;;;;;;;;21.31;34.00;94364.97;10469986;28;1825;-55
2022/04/23 07:59:51;;;;;;;;;;;;;;;21.31;34.01;94351.78;10469115;28;1956;-56
2022/04/23 08:04:51;;;;;;;;;;;;;;;21.31;33.92;94354.41;10474471;28;1817;-56
2022/04/23 08:09:51;;;;;;;;;;;;;;;21.29;33.90;94348.69;10475213;28;1789;-57
2022/04/23 08:14:52;;;;;;;;;;;;;;;21.28;34.18;94331.31;10475282;28;1857;-55
2022/04/23 08:19:52;;;;;;;;;;;;;;;21.30;33.89;94335.19;10470858;28;2118;-57
2022/04/23 08:24:53;;;;;;;;;;;;;;;21.29;33.95;94335.50;10480130;28;1816;-55
2022/04/23 08:35:13;;;;;;;;;;;;;;;21.29;33.70;94317.06;10482427;28;1856;-56
2022/04/23 08:40:14;;;;;;;;;;;;;;;21.30;33.74;94342.31;10472971;28;1918;-57
2022/04/23 08:45:14;;;;;;;;;;;;;;;21.31;34.04;94352.53;10478712;28;1783;-52
2022/04/23 08:50:15;;;;;;;;;;;;;;;21.30;33.80;94350.22;10476936;28;1806;-56
2022/04/23 08:55:18;;;;;;;;;;;;;;;21.30;34.01;94344.94;10461827;28;1791;-54
2022/04/23 09:00:19;;;;;;;;;;;;;;;21.31;33.94;94343.88;10478075;28;1922;-56
2022/04/23 09:05:20;;;;;;;;;;;;;;;21.34;33.93;94343.22;10476398;28;1769;-57
2022/04/23 09:10:22;;;;;;;;;;;;;;;21.32;34.11;94346.19;10468326;28;1801;-54
2022/04/23 09:26:14;;;;;;;;;;;;;;;21.35;33.95;94342.16;10470779;28;1897;-59
2022/04/23 09:31:15;;;;;;;;;;;;;;;21.36;33.89;94335.78;10471365;28;2022;-56
2022/04/23 09:36:16;;;;;;;;;;;;;;;21.37;33.84;94340.00;10457821;28;1985;-55
2022/04/23 09:41:16;;;;;;;;;;;;;;;21.35;33.93;94334.25;10472497;28;1825;-57
2022/04/23 09:46:17;;;;;;;;;;;;;;;21.36;33.80;94333.16;10455278;28;2347;-56
2022/04/23 09:51:24;;;;;;;;;;;;;;;21.35;33.79;94329.72;10458397;28;1774;-58
2022/04/23 09:56:25;;;;;;;;;;;;;;;21.38;33.56;94330.97;10448706;28;2026;-57
2022/04/23 10:01:26;;;;;;;;;;;;;;;21.37;33.92;94324.19;10471191;28;1911;-57
2022/04/23 10:06:26;;;;;;;;;;;;;;;21.39;33.52;94319.38;10472560;28;1888;-54
2022/04/23 10:11:27;;;;;;;;;;;;;;;21.37;33.17;94319.66;10455334;28;1846;-58
2022/04/23 10:16:28;;;;;;;;;;;;;;;21.38;33.78;94308.03;10466474;28;1990;-57
2022/04/23 10:21:58;;;;;;;;;;;;;;;21.43;33.34;94307.09;10465910;28;1789;-56
2022/04/23 10:26:59;;;;;;;;;;;;;;;21.46;33.46;94312.53;10418112;28;1824;-56
2022/04/23 10:32:08;;;;;;;;;;;;;;;21.43;33.53;94318.41;10467026;28;1835;-59
2022/04/23 10:37:12;;;;;;;;;;;;;;;21.43;33.64;94307.84;10472957;28;1887;-56
2022/04/23 10:42:13;;;;;;;;;;;;;;;21.45;33.79;94303.03;10463934;28;1828;-61
2022/04/23 10:47:29;;;;;;;;;;;;;;;21.44;34.96;94312.06;10464895;28;1758;-57
2022/04/23 10:52:36;;;;;;;;;;;;;;;21.43;35.05;94320.28;10474977;28;1878;-57
2022/04/23 10:57:38;;;;;;;;;;;;;;;21.40;35.59;94323.53;10482965;28;1961;-58
2022/04/23 11:02:39;;;;;;;;;;;;;;;21.34;36.13;94322.16;10470953;28;1876;-56
2022/04/23 11:12:59;;;;;;;;;;;;;;;21.29;35.96;94335.50;10469783;28;1993;-56
2022/04/23 11:17:59;;;;;;;;;;;;;;;21.25;36.24;94334.53;10455007;28;1974;-54
2022/04/23 11:23:01;;;;;;;;;;;;;;;21.24;36.04;94327.75;10463934;28;1743;-55
2022/04/23 11:28:14;;;;;;;;;;;;;;;21.22;36.21;94322.00;10466354;28;1880;-58
2022/04/23 11:33:14;;;;;;;;;;;;;;;21.20;36.42;94330.22;10465265;28;1884;-60
2022/04/23 11:38:19;;;;;;;;;;;;;;;21.21;35.91;94325.72;10457774;28;1976;-58
2022/04/23 11:43:33;;;;;;;;;;;;;;;21.21;36.21;94313.31;10475305;28;1792;-58
2022/04/23 11:48:59;;;;;;;;;;;;;;;21.20;36.07;94303.88;10466186;28;1832;-57
2022/04/23 11:54:00;;;;;;;;;;;;;;;21.31;34.54;94299.06;10467527;28;1936;-57
2022/04/23 11:59:04;;;;;;;;;;;;;;;21.44;34.31;94295.47;10464714;28;1902;-54
2022/04/23 12:04:04;;;;;;;;;;;;;;;21.49;34.50;94285.53;10466148;28;2185;-56
2022/04/23 12:09:07;;;;;;;;;;;;;;;21.54;34.50;94282.72;10470214;28;1721;-57
2022/04/23 12:14:09;;;;;;;;;;;;;;;21.56;34.31;94285.03;10470751;28;1757;-58
2022/04/23 12:19:10;;;;;;;;;;;;;;;21.56;34.61;94279.75;10465125;28;1906;-58
2022/04/23 12:24:10;;;;;;;;;;;;;;;21.58;34.46;94262.53;10469822;28;1797;-59
2022/04/23 12:45:18;;;;;;;;;;;;;;;21.55;34.83;94222.88;10481363;28;1809;-56
2022/04/23 12:55:56;;;;;;;;;;;;;;;21.44;35.40;94224.28;10349513;28;1914;-51
2022/04/23 13:00:58;;;;;;;;;;;;;;;21.44;35.60;94253.28;10332148;28;1799;-52
2022/04/23 13:05:58;;;;;;;;;;;;;;;21.39;35.57;94259.50;10322759;28;1852;-52
2022/04/23 13:11:24;;;;;;;;;;;;;;;21.37;35.79;94253.00;10332636;28;1777;-51
2022/04/23 13:16:24;;;;;;;;;;;;;;;21.36;35.69;94233.00;10326214;28;1906;-50
2022/04/23 13:21:25;;;;;;;;;;;;;;;21.41;35.90;94235.47;10327705;28;2372;-51
2022/04/23 13:26:29;;;;;;;;;;;;;;;21.47;35.01;94231.56;10328189;28;1963;-48
2022/04/23 13:31:29;;;;;;;;;;;;;;;21.54;34.97;94214.16;10335852;28;1834;-49
2022/04/23 13:36:29;;;;;;;;;;;;;;;21.59;34.60;94205.31;10327736;28;1971;-50
2022/04/23 13:41:30;;;;;;;;;;;;;;;21.62;34.79;94200.19;10335123;28;1945;-50
2022/04/23 13:46:33;;;;;;;;;;;;;;;21.62;35.07;94210.72;10347110;28;1785;-50
2022/04/23 13:51:33;;;;;;;;;;;;;;;21.62;34.91;94202.81;10335973;28;2086;-48
2022/04/23 13:56:33;;;;;;;;;;;;;;;21.63;35.41;94203.59;10327828;28;1971;-48
2022/04/23 14:01:34;;;;;;;;;;;;;;;21.64;35.47;94194.56;10353515;28;1872;-49
2022/04/23 14:11:53;;;;;;;;;;;;;;;21.59;35.32;94200.81;10338707;28;1889;-47
2022/04/23 14:16:54;;;;;;;;;;;;;;;21.58;35.29;94190.56;10334421;28;1902;-50
2022/04/23 14:21:54;;;;;;;;;;;;;;;21.58;35.57;94195.84;10345758;28;1895;-50
2022/04/23 14:26:55;;;;;;;;;;;;;;;21.58;35.87;94190.56;10344764;28;1770;-54
2022/04/23 14:31:55;;;;;;;;;;;;;;;21.58;35.53;94185.31;10331767;28;1798;-54
2022/04/23 14:36:56;;;;;;;;;;;;;;;21.56;35.83;94175.06;10332283;28;1942;-49
2022/04/23 14:41:56;;;;;;;;;;;;;;;21.56;35.53;94175.06;10341077;28;2032;-49
2022/04/23 14:47:00;;;;;;;;;;;;;;;21.55;35.74;94168.28;10331393;28;1847;-51
2022/04/23 14:57:19;;;;;;;;;;;;;;;21.54;35.84;94166.72;10329870;28;1904;-53
2022/04/23 15:02:20;;;;;;;;;;;;;;;21.52;35.39;94168.13;10332834;28;1919;-50
2022/04/23 15:07:21;;;;;;;;;;;;;;;21.53;35.57;94170.47;10327058;28;1906;-53
2022/04/23 15:12:21;;;;;;;;;;;;;;;21.54;35.75;94165.94;10326664;28;1865;-50
2022/04/23 15:17:22;;;;;;;;;;;;;;;21.53;36.05;94175.72;10322070;28;1964;-53
2022/04/23 15:22:22;;;;;;;;;;;;;;;21.51;35.76;94179.75;10316560;28;1828;-52
2022/04/23 15:27:23;;;;;;;;;;;;;;;21.53;36.35;94182.84;10314217;28;1856;-48
2022/04/23 15:32:24;;;;;;;;;;;;;;;21.54;36.27;94176.47;10328220;28;1793;-46
2022/04/23 15:37:24;;;;;;;;;;;;;;;21.51;35.94;94169.22;10327904;28;1902;-46
2022/04/23 15:42:24;;;;;;;;;;;;;;;21.50;36.32;94175.56;10326603;28;1761;-47
2022/04/23 15:47:26;;;;;;;;;;;;;;;21.51;36.32;94174.50;10328276;28;1835;-46
2022/04/23 15:52:27;;;;;;;;;;;;;;;21.49;36.32;94169.53;10321960;28;1970;-47
2022/04/23 15:57:29;;;;;;;;;;;;;;;21.51;36.13;94171.84;10337165;28;1958;-48
2022/04/23 16:02:30;;;;;;;;;;;;;;;21.49;36.16;94164.28;10336676;28;1826;-49
2022/04/23 16:07:30;;;;;;;;;;;;;;;21.47;36.22;94132.19;10327953;28;1802;-46
2022/04/23 16:12:30;;;;;;;;;;;;;;;21.49;36.26;94097.59;10333049;28;1923;-47
2022/04/23 16:17:31;;;;;;;;;;;;;;;21.50;36.13;94080.66;10330052;28;1914;-46
2022/04/23 16:22:32;;;;;;;;;;;;;;;21.47;36.44;94082.09;10340725;28;1831;-47
2022/04/23 16:27:32;;;;;;;;;;;;;;;21.47;36.16;94081.31;10324791;28;1781;-46
2022/04/23 16:32:33;;;;;;;;;;;;;;;21.47;35.86;94073.41;10332925;28;1852;-48
2022/04/23 16:48:19;;;;;;;;;;;;;;;21.48;36.01;94111.84;10317959;28;2297;-51
2022/04/23 16:53:19;;;;;;;;;;;;;;;21.44;36.23;94108.28;10334716;28;1846;-46
2022/04/23 16:58:20;;;;;;;;;;;;;;;21.45;36.00;94110.59;10336742;28;2407;-45
2022/04/23 17:03:20;;;;;;;;;;;;;;;21.44;36.02;94119.63;10340348;28;1888;-45
2022/04/23 17:08:21;;;;;;;;;;;;;;;21.45;35.87;94117.75;10331371;28;1896;-47
2022/04/23 17:13:22;;;;;;;;;;;;;;;21.44;36.02;94116.19;10334683;28;1983;-49
2022/04/23 17:18:22;;;;;;;;;;;;;;;21.45;35.95;94123.03;10327195;28;1902;-46
2022/04/23 17:23:23;;;;;;;;;;;;;;;21.44;35.92;94108.28;10336274;28;1949;-46
2022/04/23 17:28:25;;;;;;;;;;;;;;;21.43;35.86;94112.03;10337707;28;1905;-48
2022/04/23 17:33:26;;;;;;;;;;;;;;;21.45;35.78;94104.59;10332358;28;1876;-49
2022/04/23 17:43:45;;;;;;;;;;;;;;;21.41;35.80;94104.44;10334081;28;1861;-46
2022/04/23 17:48:46;;;;;;;;;;;;;;;21.43;35.71;94096.22;10333623;28;1888;-52
2022/04/23 17:53:47;;;;;;;;;;;;;;;21.45;35.82;94099.31;10350705;28;1808;-50
2022/04/23 17:58:47;;;;;;;;;;;;;;;21.44;35.90;94105.66;10334389;28;1988;-48
2022/04/23 18:09:07;;;;;;;;;;;;;;;21.44;35.81;94118.84;10332894;28;1870;-46
2022/04/23 18:14:07;;;;;;;;;;;;;;;21.45;35.52;94115.88;10313449;28;2082;-49
2022/04/23 18:19:09;;;;;;;;;;;;;;;21.47;35.58;94119.00;10323804;28;1937;-46
2022/04/23 18:24:09;;;;;;;;;;;;;;;21.43;35.48;94117.31;10350674;28;1952;-47
2022/04/23 18:29:10;;;;;;;;;;;;;;;21.42;35.55;94115.75;10324114;28;1935;-46
2022/04/23 18:34:11;;;;;;;;;;;;;;;21.42;35.61;94115.75;10314318;28;2056;-45
2022/04/23 18:39:11;;;;;;;;;;;;;;;21.39;35.40;94105.84;10333280;28;1973;-47
2022/04/23 18:44:11;;;;;;;;;;;;;;;21.41;35.45;94098.41;10333301;28;1979;-47
2022/04/23 18:49:12;;;;;;;;;;;;;;;21.39;35.34;94085.53;10328691;28;1790;-45
2022/04/23 18:54:13;;;;;;;;;;;;;;;21.37;35.30;94092.97;10414110;22;2058;-70
2022/04/23 18:59:13;;;;;;;;;;;;;;;21.36;35.21;94094.06;10435120;28;2039;-69
2022/04/23 19:04:13;;;;;;;;;;;;;;;21.37;35.40;94092.97;10360268;28;2035;-68
2022/04/23 19:09:14;;;;;;;;;;;;;;;21.40;35.76;94088.94;10357426;28;2259;-68
2022/04/23 19:14:15;;;;;;;;;;;;;;;21.42;35.75;94094.66;10368837;28;1870;-68
2022/04/23 19:19:16;;;;;;;;;;;;;;;21.42;36.04;94090.16;10390008;28;1909;-67
2022/04/23 19:29:35;;;;;;;;;;;;;;;21.47;36.20;94083.94;10368968;28;1888;-69
2022/04/23 19:34:36;;;;;;;;;;;;;;;21.50;36.61;94072.75;10370372;28;1808;-71
2022/04/23 19:39:36;;;;;;;;;;;;;;;21.51;36.35;94063.75;10353841;28;1910;-70
2022/04/23 19:44:37;;;;;;;;;;;;;;;21.56;36.48;94061.72;10365626;28;1854;-70
2022/04/23 19:49:37;;;;;;;;;;;;;;;21.56;36.69;94059.06;10354888;28;1847;-69
2022/04/23 19:54:38;;;;;;;;;;;;;;;21.61;36.83;94055.47;10382458;28;1787;-73
2022/04/23 19:59:39;;;;;;;;;;;;;;;21.61;36.92;94056.25;10337062;28;1955;-72
2022/04/23 20:04:39;;;;;;;;;;;;;;;21.60;36.86;94048.66;10334400;28;1811;-73
2022/04/23 20:09:41;;;;;;;;;;;;;;;21.58;36.98;94037.66;10337257;28;1900;-72
2022/04/23 20:14:42;;;;;;;;;;;;;;;21.58;36.70;94017.34;10361147;28;1896;-73
2022/04/23 20:19:42;;;;;;;;;;;;;;;21.54;36.80;94010.38;10348210;28;1906;-73
2022/04/23 20:24:45;;;;;;;;;;;;;;;21.54;36.23;93995.34;10356259;28;2019;-72
2022/04/23 20:29:46;;;;;;;;;;;;;;;21.51;36.04;93997.84;10364841;28;1919;-73
2022/04/23 20:40:06;;;;;;;;;;;;;;;21.48;35.99;93998.47;10394547;28;1902;-71
2022/04/23 20:45:06;;;;;;;;;;;;;;;21.45;36.17;93976.16;10345865;28;1803;-70
2022/04/23 20:50:07;;;;;;;;;;;;;;;21.44;35.99;93981.75;10351017;28;1827;-71
2022/04/23 20:55:07;;;;;;;;;;;;;;;21.43;36.05;93974.97;10328258;28;1812;-72
2022/04/23 21:00:09;;;;;;;;;;;;;;;21.41;35.96;93971.88;10336965;28;1972;-72
2022/04/23 21:05:10;;;;;;;;;;;;;;;21.40;36.08;93943.97;10362378;28;1855;-71
2022/04/23 21:10:11;;;;;;;;;;;;;;;21.38;35.70;93939.03;10382885;28;1835;-72
2022/04/23 21:15:12;;;;;;;;;;;;;;;21.38;36.00;93938.25;10348321;28;1712;-72
2022/04/23 21:20:12;;;;;;;;;;;;;;;21.36;35.51;93930.66;10371836;28;1923;-72
2022/04/23 21:25:13;;;;;;;;;;;;;;;21.35;35.87;93937.00;10366099;28;1807;-71
2022/04/23 21:30:13;;;;;;;;;;;;;;;21.38;35.62;93935.59;10370678;28;1847;-71
2022/04/23 21:35:14;;;;;;;;;;;;;;;21.38;35.28;93935.59;10375087;28;1809;-71
2022/04/23 21:40:14;;;;;;;;;;;;;;;21.38;35.38;93930.34;10347919;28;1970;-72
2022/04/23 21:45:14;;;;;;;;;;;;;;;21.41;35.32;93921.81;10359739;28;1661;-71
2022/04/23 21:50:16;;;;;;;;;;;;;;;21.37;35.35;93903.19;10417142;22;3552;-56
2022/04/23 21:55:16;;;;;;;;;;;;;;;21.38;35.60;93899.50;10438907;28;1871;-57
2022/04/23 22:00:41;;;;;;;;;;;;;;;21.36;35.16;93893.75;10434105;28;1969;-55
2022/04/23 22:05:42;;;;;;;;;;;;;;;21.37;35.11;93887.38;10423871;28;1741;-57
2022/04/23 22:10:43;;;;;;;;;;;;;;;21.37;35.18;93881.38;10431494;28;1847;-57
2022/04/23 22:15:44;;;;;;;;;;;;;;;21.38;35.18;93877.63;10431117;28;1866;-57
2022/04/23 22:20:44;;;;;;;;;;;;;;;21.36;35.21;93870.03;10428398;28;1914;-55
2022/04/23 22:25:44;;;;;;;;;;;;;;;21.36;35.02;93872.69;10430301;28;1728;-56
2022/04/23 22:30:45;;;;;;;;;;;;;;;21.37;34.86;93876.09;10426791;28;1861;-55
2022/04/23 22:35:45;;;;;;;;;;;;;;;21.36;34.88;93858.72;10428736;28;1767;-56
2022/04/23 22:40:45;;;;;;;;;;;;;;;21.37;34.96;93847.84;10428999;28;1902;-53
2022/04/23 22:45:47;;;;;;;;;;;;;;;21.38;34.97;93840.72;10430477;28;1831;-58
2022/04/23 22:50:47;;;;;;;;;;;;;;;21.37;34.75;93826.78;10434035;28;2358;-57
2022/04/23 22:55:47;;;;;;;;;;;;;;;21.39;34.68;93821.19;10427865;28;1874;-55
2022/04/23 23:00:48;;;;;;;;;;;;;;;21.39;34.61;93800.09;10431797;28;1902;-52
2022/04/23 23:05:49;;;;;;;;;;;;;;;21.36;34.77;93790.97;10425608;28;1758;-55
2022/04/23 23:10:49;;;;;;;;;;;;;;;21.38;34.63;93777.47;10428103;28;1874;-58
2022/04/23 23:15:50;;;;;;;;;;;;;;;21.38;34.41;93778.25;10427301;28;1820;-58
2022/04/23 23:20:50;;;;;;;;;;;;;;;21.37;34.58;93775.94;10421636;28;1918;-57
2022/04/23 23:25:50;;;;;;;;;;;;;;;21.36;34.51;93774.38;10426210;28;1821;-53
2022/04/23 23:30:51;;;;;;;;;;;;;;;21.37;34.50;93771.41;10426941;28;1766;-56
2022/04/23 23:35:52;;;;;;;;;;;;;;;21.38;34.35;93753.75;10428547;28;1874;-56
2022/04/23 23:40:53;;;;;;;;;;;;;;;21.38;34.43;93748.47;10431856;28;1965;-57
2022/04/23 23:45:54;;;;;;;;;;;;;;;21.38;34.36;93741.34;10426336;28;1836;-56
2022/04/23 23:50:54;;;;;;;;;;;;;;;21.36;34.70;93732.22;10428048;28;1870;-56
2022/04/23 23:55:54;;;;;;;;;;;;;;;21.37;34.55;93712.69;10426883;28;1930;-58
